Station: Edenhope  

  Atmospheric Gas Attenuation - ITU Rec 676-11   ----------------- dB/100km -----------------
Date Time Temp RH % AH g/m3 Dew Point Wind Direction Speed kph Gust kph Barometer mB Rainfall Since 9am 24GHz 47GHz 76GHz 122GHz 134GHz 241GHz
08/05 12:40 13.2 93 10.68 12.1 17 19 1013.1 0 24.1 29.6 48.8 128.6 127.9 441.6
08/05 12:30 13.6 86 10.12 11.3 17 24 1013.1 0 22.9 28.5 46.2 121.5 119.3 411.7
08/05 12:20 14.1 81 9.83 10.9 20 22 1013.1 0 22.2 27.8 44.7 117.5 114.6 395.0
08/05 12:10 13.8 84 10.01 11.1 17 20 1013.1 0 22.6 28.2 45.6 119.9 117.5 405.3
08/05 12:00 13.9 85 10.19 11.4 13 19 1013.1 0 23.0 28.5 46.3 121.8 119.8 413.5
08/05 11:50 13.8 85 10.13 11.3 11 15 1013.1 0 22.9 28.4 46.1 121.3 119.2 411.1
08/05 11:40 13.4 86 10 11.1 20 32 1013.1 0 22.6 28.3 45.8 120.4 118.0 406.9
08/05 11:30 13.2 87 9.99 11.1 15 24 1013.1 0 22.6 28.4 45.9 120.6 118.1 407.5
08/05 11:20 13.3 86 9.94 11.1 15 19 1013.1 0 22.5 28.3 45.6 119.9 117.3 404.5
08/05 11:10 13.3 89 10.28 11.5 13 19 1013.1 0 23.2 28.9 47.1 123.8 122.1 421.2
08/05 11:00 13.2 88 10.1 11.3 17 26 1013.1 0 22.8 28.6 46.3 121.9 119.7 412.8
08/05 10:50 13.2 86 9.88 10.9 26 32 1013.1 0 22.4 28.2 45.4 119.4 116.6 402.1
08/05 10:40 13.1 92 10.5 11.8 22 28 1013.1 0 23.7 29.3 48.1 126.7 125.5 433.2
08/05 10:30 13 94 10.66 12.1 17 26 1013.1 0 24.1 29.6 48.9 128.7 128.0 441.8
08/05 10:20 12.5 94 10.34 11.5 20 26 1013.1 0 23.4 29.2 47.8 125.8 124.2 428.6
08/05 10:10 12.5 95 10.45 11.7 20 26 1013.1 0 23.6 29.4 48.3 127.1 125.8 434.1
08/05 10:00 12.3 96 10.43 11.7 19 28 1013.1 0 23.6 29.5 48.3 127.2 125.8 434.2
08/05 09:50 12 99 10.55 11.8 20 26 1013.1 0 23.9 29.8 49.0 129.1 128.1 442.0
08/05 09:40 11.8 100 10.53 11.8 20 24 1013.1 0 23.8 29.8 49.1 129.2 128.1 442.1
08/05 09:30 12 100 10.66 12 17 26 1013.1 0 24.1 30.0 49.5 130.4 129.7 447.6
08/05 09:20 12.1 98 10.51 11.8 17 20 1013.1 0 23.8 29.7 48.8 128.4 127.3 439.4
08/05 09:10 12.2 97 10.47 11.7 19 20 1013.1 0 23.7 29.6 48.6 127.8 126.6 436.8
08/05 09:00 12.3 98 10.64 12 13 17 1013.1 0 24.1 29.8 49.2 129.6 128.9 444.8
08/05 08:50 12.2 100 10.79 12.2 15 19 1013.1 0.6 24.4 30.1 50.0 131.6 131.2 453.0
08/05 08:40 11.9 100 10.59 11.9 19 20 1013.1 0.6 24.0 29.9 49.3 129.7 128.8 444.6
08/05 08:30 11.8 100 10.53 11.8 15 22 1013.1 0.6 23.8 29.8 49.1 129.2 128.1 442.1
08/05 08:20 11.8 100 10.53 11.8 17 20 1013.1 0.6 23.8 29.8 49.1 129.2 128.1 442.1
08/05 08:10 11.8 100 10.53 11.8 11 13 1013.1 0.6 23.8 29.8 49.1 129.2 128.1 442.1
08/05 08:00 11.7 100 10.46 11.7 9 17 1013.1 0.6 23.7 29.7 48.8 128.5 127.3 439.1
08/05 07:50 11.6 100 10.4 11.6 13 19 1013.1 0.6 23.6 29.6 48.6 128.0 126.6 436.6
08/05 07:40 11.5 100 10.33 11.5 13 15 1013.1 0.6 23.4 29.5 48.4 127.3 125.7 433.7
08/05 07:30 11.4 100 10.27 11.4 11 15 1013.1 0.6 23.3 29.5 48.2 126.8 125.0 431.2
08/05 07:20 11.4 100 10.27 11.4 13 17 1013.1 0.6 23.3 29.5 48.2 126.8 125.0 431.2
08/05 07:10 11.4 100 10.27 11.5 11 15 1013.1 0.6 23.3 29.5 48.2 126.8 125.0 431.2
08/05 07:00 11.5 100 10.33 11.5 17 28 1013.1 0.6 23.4 29.5 48.4 127.3 125.7 433.7
08/05 06:50 11.6 100 10.4 11.7 13 17 1013.1 0.4 23.6 29.6 48.6 128.0 126.6 436.6
08/05 06:40 11.6 100 10.4 11.6 15 19 1013.1 0.4 23.6 29.6 48.6 128.0 126.6 436.6
08/05 06:30 11.6 100 10.4 11.6 19 30 1013.1 0.4 23.6 29.6 48.6 128.0 126.6 436.6
08/05 06:20 11.5 100 10.33 11.6 19 26 1013.1 0.4 23.4 29.5 48.4 127.3 125.7 433.7
08/05 06:10 11.6 100 10.4 11.7 15 20 1013.1 0.4 23.6 29.6 48.6 128.0 126.6 436.6
08/05 06:00 11.6 100 10.4 11.6 19 30 1013.1 0.2 23.6 29.6 48.6 128.0 126.6 436.6
08/05 05:50 11.6 100 10.4 11.7 17 17 1013.1 0.2 23.6 29.6 48.6 128.0 126.6 436.6
08/05 05:40 11.5 100 10.33 11.6 22 26 1013.1 0.2 23.4 29.5 48.4 127.3 125.7 433.7
08/05 05:30 11.5 100 10.33 11.5 15 22 1013.1 0.2 23.4 29.5 48.4 127.3 125.7 433.7
08/05 05:20 11.5 100 10.33 11.6 20 22 1013.1 0.2 23.4 29.5 48.4 127.3 125.7 433.7
08/05 05:10 11.4 100 10.27 11.5 13 15 1013.1 0.2 23.3 29.5 48.2 126.8 125.0 431.2
08/05 05:00 11.5 100 10.33 11.5 19 28 1013.1 0.2 23.4 29.5 48.4 127.3 125.7 433.7
08/05 04:50 11.4 100 10.27 11.5 20 28 1013.1 0 23.3 29.5 48.2 126.8 125.0 431.2
08/05 04:40 11.4 100 10.27 11.5 17 19 1013.1 0 23.3 29.5 48.2 126.8 125.0 431.2
08/05 04:30 11.4 100 10.27 11.4 19 28 1013.1 0 23.3 29.5 48.2 126.8 125.0 431.2
08/05 04:20 11.4 100 10.27 11.5 20 26 1013.1 0 23.3 29.5 48.2 126.8 125.0 431.2
08/05 04:10 11.4 100 10.27 11.5 19 24 1013.1 0 23.3 29.5 48.2 126.8 125.0 431.2
08/05 04:00 11.4 100 10.27 11.4 19 26 1013.1 0 23.3 29.5 48.2 126.8 125.0 431.2
08/05 03:50 11.4 100 10.27 11.5 17 20 1013.1 0 23.3 29.5 48.2 126.8 125.0 431.2
08/05 03:40 11.3 100 10.2 11.4 22 30 1013.1 0 23.2 29.4 47.9 126.1 124.2 428.2
08/05 03:30 11.3 100 10.2 11.3 17 24 1013.1 0 23.2 29.4 47.9 126.1 124.2 428.2
08/05 03:20 11.3 100 10.2 11.4 20 26 1013.1 0 23.2 29.4 47.9 126.1 124.2 428.2
08/05 03:10 11.3 100 10.2 11.4 13 19 1013.1 0 23.2 29.4 47.9 126.1 124.2 428.2
08/05 03:00 11.2 100 10.14 11.2 17 24 1013.1 0 23.0 29.3 47.7 125.6 123.4 425.7
08/05 02:50 11.2 100 10.14 11.3 17 22 1013.1 0 23.0 29.3 47.7 125.6 123.4 425.7
08/05 02:40 11.2 100 10.14 11.3 17 20 1013.1 0 23.0 29.3 47.7 125.6 123.4 425.7
08/05 02:30 11.1 100 10.07 11.1 15 24 1013.1 0 22.9 29.2 47.5 124.9 122.6 422.7
08/05 02:20 11.1 100 10.07 11.2 13 17 1013.1 0 22.9 29.2 47.5 124.9 122.6 422.7
08/05 02:10 11 100 10.01 11.1 17 22 1013.1 0 22.8 29.1 47.3 124.4 121.9 420.3
08/05 02:00 11 100 10.01 11 15 24 1013.1 0 22.8 29.1 47.3 124.4 121.9 420.3
08/05 01:50 10.9 100 9.95 11 19 22 1013.1 0 22.6 29.1 47.1 123.8 121.2 417.8
08/05 01:40 10.8 100 9.89 10.9 20 22 1013.1 0 22.5 29.0 46.9 123.3 120.5 415.3
08/05 01:30 10.8 100 9.89 10.8 13 19 1013.1 0 22.5 29.0 46.9 123.3 120.5 415.3
08/05 01:20 10.8 100 9.89 10.9 15 19 1013.1 0 22.5 29.0 46.9 123.3 120.5 415.3
08/05 01:10 10.7 100 9.82 10.7 19 26 1013.1 0 22.4 28.9 46.6 122.6 119.6 412.3
08/05 01:00 10.7 100 9.82 10.7 15 24 1013.1 0 22.4 28.9 46.6 122.6 119.6 412.3
08/05 00:50 10.8 100 9.89 10.8 13 15 1013.1 0 22.5 29.0 46.9 123.3 120.5 415.3
08/05 00:40 10.8 100 9.89 10.8 15 15 1013.1 0 22.5 29.0 46.9 123.3 120.5 415.3
08/05 00:30 10.8 100 9.89 10.8 17 24 1013.1 0 22.5 29.0 46.9 123.3 120.5 415.3
08/05 00:20 10.7 100 9.82 10.7 15 20 1013.1 0 22.4 28.9 46.6 122.6 119.6 412.3
08/05 00:10 10.7 100 9.82 10.7 13 15 1013.1 0 22.4 28.9 46.6 122.6 119.6 412.3
08/05 00:00 10.7 100 9.82 10.7 13 20 1013.1 0 22.4 28.9 46.6 122.6 119.6 412.3
07/05 23:50 10.7 100 9.82 10.7 17 20 1013.1 0 22.4 28.9 46.6 122.6 119.6 412.3
07/05 23:40 10.7 99 9.73 10.5 13 17 1013.1 0 22.2 28.8 46.2 121.6 118.3 407.8
07/05 23:30 10.7 97 9.53 10.2 15 22 1013.1 0 21.7 28.4 45.4 119.2 115.5 397.8
07/05 23:20 10.7 95 9.33 9.9 17 22 1013.1 0 21.3 28.1 44.5 116.9 112.6 387.8
07/05 23:10 10.7 93 9.14 9.6 17 20 1013.1 0 20.9 27.7 43.7 114.8 109.9 378.5
07/05 23:00 10.8 91 9 9.4 17 26 1013.1 0 20.6 27.5 43.0 113.0 107.8 371.1
07/05 22:50 10.7 90 8.84 9.1 15 19 1013.1 0 20.3 27.2 42.4 111.3 105.7 363.8
07/05 22:40 10.5 91 8.83 9.1 13 15 1013.1 0 20.2 27.3 42.5 111.5 105.9 364.2
07/05 22:30 10.5 91 8.83 9.1 15 20 1013.1 0 20.2 27.3 42.5 111.5 105.9 364.2
07/05 22:20 10.5 91 8.83 9.1 11 15 1013.1 0 20.2 27.3 42.5 111.5 105.9 364.2
07/05 22:10 10.5 91 8.83 9.1 19 22 1013.1 0 20.2 27.3 42.5 111.5 105.9 364.2
07/05 22:00 10.6 89 8.69 8.9 19 32 1013.1 0 19.9 27.0 41.8 109.8 103.8 357.0
07/05 21:50 10.8 86 8.5 8.5 15 19 1013.1 0 19.5 26.6 40.9 107.4 100.9 346.9
07/05 21:40 10.7 86 8.45 8.4 15 20 1013.1 0 19.4 26.6 40.8 107.0 100.4 344.9
07/05 21:30 10.8 85 8.4 8.4 13 20 1013.1 0 19.3 26.4 40.5 106.3 99.5 342.1
07/05 21:20 10.8 84 8.3 8.2 13 15 1013.1 0 19.1 26.3 40.1 105.2 98.2 337.3
07/05 21:10 10.9 83 8.26 8.1 13 19 1013.1 0 19.0 26.2 39.9 104.6 97.5 335.0
07/05 21:00 10.9 83 8.26 8.1 15 19 1013.1 0 19.0 26.2 39.9 104.6 97.5 335.0
07/05 20:50 11 82 8.21 8 15 17 1013.1 0 18.9 26.1 39.6 103.9 96.7 332.2
07/05 20:40 11 82 8.21 8 13 17 1013.1 0 18.9 26.1 39.6 103.9 96.7 332.2
07/05 20:30 10.9 83 8.26 8.1 15 24 1013.1 0 19.0 26.2 39.9 104.6 97.5 335.0
07/05 20:20 10.8 83 8.21 8 15 19 1013.1 0 18.9 26.1 39.7 104.2 97.0 333.0
07/05 20:10 10.7 83 8.15 7.9 15 17 1013.1 0 18.8 26.1 39.5 103.7 96.3 330.6

Last Refresh: 08-May-2026 12:10:14

Bureau of Meteorology